createdAt,value
2017-07-23T00:01:12.355Z,19.91
2017-07-23T00:03:44.709Z,19.89
2017-07-23T00:06:16.974Z,19.79
2017-07-23T00:08:49.347Z,19.77
2017-07-23T00:11:21.632Z,19.70
2017-07-23T00:13:53.884Z,19.65
2017-07-23T00:16:26.213Z,19.60
2017-07-23T00:18:58.584Z,19.59
2017-07-23T00:21:30.805Z,19.62
2017-07-23T00:24:03.716Z,19.61
2017-07-23T00:26:36.465Z,19.59
2017-07-23T00:29:08.793Z,19.57
2017-07-23T00:31:41.116Z,19.54
2017-07-23T00:34:13.507Z,19.57
2017-07-23T00:36:45.770Z,19.62
2017-07-23T00:39:18.141Z,19.67
2017-07-23T00:41:50.388Z,19.70
2017-07-23T00:44:22.692Z,19.74
2017-07-23T00:46:55.112Z,19.76
2017-07-23T00:49:27.351Z,19.75
2017-07-23T00:51:59.751Z,19.77
2017-07-23T00:54:31.987Z,19.80
2017-07-23T00:57:04.244Z,19.80
2017-07-23T00:59:36.693Z,19.80
2017-07-23T01:02:09.027Z,19.84
2017-07-23T01:04:41.448Z,19.84
2017-07-23T01:07:13.643Z,19.81
2017-07-23T01:09:46.071Z,19.83
2017-07-23T01:12:18.295Z,19.86
2017-07-23T01:14:50.631Z,19.83
2017-07-23T01:17:22.923Z,19.75
2017-07-23T01:19:55.329Z,19.67
2017-07-23T01:22:27.623Z,19.70
2017-07-23T01:24:59.961Z,19.73
2017-07-23T01:27:32.275Z,19.77
2017-07-23T01:30:04.543Z,19.80
2017-07-23T01:32:36.927Z,19.76
2017-07-23T01:35:09.423Z,19.73
2017-07-23T01:40:02.072Z,19.65
2017-07-23T01:42:34.200Z,19.70
2017-07-23T01:45:06.504Z,19.69
2017-07-23T01:47:38.860Z,19.68
2017-07-23T01:50:10.978Z,19.67
2017-07-23T01:52:43.268Z,19.61
2017-07-23T01:55:15.817Z,19.65
2017-07-23T01:57:48.536Z,19.58
2017-07-23T02:00:20.772Z,19.58
2017-07-23T02:02:53.096Z,19.61
2017-07-23T02:05:25.343Z,19.53
2017-07-23T02:07:57.715Z,19.47
2017-07-23T02:10:29.913Z,19.56
2017-07-23T02:13:02.285Z,19.59
2017-07-23T02:15:34.484Z,19.62
2017-07-23T02:18:06.748Z,19.60
2017-07-23T02:20:38.976Z,19.55
2017-07-23T02:23:11.320Z,19.56
2017-07-23T02:25:43.543Z,19.52
2017-07-23T02:28:15.851Z,19.51
2017-07-23T02:30:48.344Z,19.46
2017-07-23T02:33:20.643Z,19.42
2017-07-23T02:35:52.918Z,19.45
2017-07-23T02:38:25.288Z,19.48
2017-07-23T02:40:57.486Z,19.26
2017-07-23T02:43:29.864Z,19.31
2017-07-23T02:46:02.107Z,19.22
2017-07-23T02:48:34.332Z,19.09
2017-07-23T02:51:06.772Z,19.01
2017-07-23T02:53:39.292Z,19.04
2017-07-23T02:56:11.472Z,19.05
2017-07-23T02:58:43.889Z,19.01
2017-07-23T03:01:16.098Z,18.95
2017-07-23T03:03:48.469Z,18.93
2017-07-23T03:06:20.732Z,18.99
2017-07-23T03:08:53.164Z,19.03
2017-07-23T03:11:25.607Z,19.07
2017-07-23T03:13:58.099Z,19.07
2017-07-23T03:16:30.544Z,19.08
2017-07-23T03:19:02.944Z,19.10
2017-07-23T03:21:35.184Z,19.10
2017-07-23T03:24:07.565Z,19.04
2017-07-23T03:26:39.808Z,18.98
2017-07-23T03:29:12.201Z,18.91
2017-07-23T03:31:44.423Z,18.85
2017-07-23T03:34:16.655Z,18.82
2017-07-23T03:36:49.067Z,18.81
2017-07-23T03:39:21.500Z,18.77
2017-07-23T03:41:53.843Z,18.77
2017-07-23T03:44:26.188Z,18.70
2017-07-23T03:46:58.489Z,18.69
2017-07-23T03:49:30.847Z,18.67
2017-07-23T03:52:03.028Z,18.66
2017-07-23T03:54:35.313Z,18.60
2017-07-23T03:57:07.587Z,18.62
2017-07-23T03:59:40.024Z,18.59
2017-07-23T04:02:12.332Z,18.58
2017-07-23T04:04:44.620Z,18.59
2017-07-23T04:07:17.024Z,18.60
2017-07-23T04:09:49.388Z,18.52
2017-07-23T04:12:21.740Z,18.55
2017-07-23T04:14:54.104Z,18.52
2017-07-23T04:17:26.459Z,18.52
2017-07-23T04:19:58.896Z,18.57
2017-07-23T04:22:31.226Z,18.59
2017-07-23T04:25:03.634Z,18.52
2017-07-23T04:27:35.928Z,18.50
2017-07-23T04:30:08.364Z,18.54
2017-07-23T04:32:40.668Z,18.51
2017-07-23T04:35:13.026Z,18.52
2017-07-23T04:37:45.343Z,18.52
2017-07-23T04:40:17.568Z,18.47
2017-07-23T04:42:50.273Z,18.57
2017-07-23T04:45:22.432Z,18.50
2017-07-23T04:47:54.663Z,18.56
2017-07-23T04:50:27.107Z,18.63
2017-07-23T04:52:59.423Z,18.56
2017-07-23T04:55:31.704Z,18.53
2017-07-23T04:58:04.068Z,18.51
2017-07-23T05:00:36.307Z,18.47
2017-07-23T05:03:08.480Z,18.47
2017-07-23T05:05:40.723Z,18.42
2017-07-23T05:08:12.921Z,18.36
2017-07-23T05:10:45.197Z,18.15
2017-07-23T05:13:17.539Z,18.24
2017-07-23T05:15:49.985Z,18.27
2017-07-23T05:18:22.245Z,18.25
2017-07-23T05:20:54.580Z,18.35
2017-07-23T05:23:26.733Z,18.38
2017-07-23T05:25:58.953Z,18.46
2017-07-23T05:28:31.292Z,18.45
2017-07-23T05:31:03.509Z,18.49
2017-07-23T05:33:35.719Z,18.47
2017-07-23T05:36:08.099Z,18.44
2017-07-23T05:38:40.259Z,18.43
2017-07-23T05:41:12.623Z,18.50
2017-07-23T05:43:44.871Z,18.66
2017-07-23T05:46:17.211Z,18.68
2017-07-23T05:48:49.474Z,18.85
2017-07-23T05:51:21.772Z,19.06
2017-07-23T05:53:53.995Z,19.21
2017-07-23T05:56:26.400Z,19.33
2017-07-23T05:58:58.624Z,19.43
2017-07-23T06:01:30.980Z,19.53
2017-07-23T06:04:03.165Z,19.57
2017-07-23T06:06:35.460Z,19.56
2017-07-23T06:09:07.736Z,19.72
2017-07-23T06:11:40.084Z,19.91
2017-07-23T06:14:12.366Z,20.18
2017-07-23T06:16:44.741Z,20.23
2017-07-23T06:19:16.977Z,20.37
2017-07-23T06:21:49.284Z,20.68
2017-07-23T06:24:21.667Z,20.95
2017-07-23T06:26:53.935Z,21.20
2017-07-23T06:29:26.299Z,21.04
2017-07-23T06:31:58.624Z,20.88
2017-07-23T06:34:30.953Z,20.92
2017-07-23T06:37:03.412Z,20.87
2017-07-23T06:39:35.814Z,20.58
2017-07-23T06:42:08.199Z,20.61
2017-07-23T06:44:40.616Z,20.50
2017-07-23T06:47:13.112Z,20.34
2017-07-23T06:49:45.536Z,20.28
2017-07-23T06:52:17.959Z,20.21
2017-07-23T06:54:50.500Z,20.34
2017-07-23T06:57:22.867Z,20.43
2017-07-23T06:59:55.165Z,20.27
2017-07-23T07:02:27.667Z,20.32
2017-07-23T07:05:00.011Z,20.42
2017-07-23T07:07:32.392Z,20.66
2017-07-23T07:10:04.692Z,21.16
2017-07-23T07:12:37.087Z,22.09
2017-07-23T07:15:09.361Z,23.05
2017-07-23T07:17:41.728Z,24.47
2017-07-23T07:20:13.964Z,25.18
2017-07-23T07:22:46.318Z,25.76
2017-07-23T07:25:18.639Z,25.97
2017-07-23T07:27:50.947Z,25.21
2017-07-23T07:30:23.169Z,25.59
2017-07-23T07:32:55.531Z,26.34
2017-07-23T07:35:27.775Z,26.72
2017-07-23T07:38:00.107Z,27.36
2017-07-23T07:40:32.419Z,26.32
2017-07-23T07:43:04.809Z,26.15
2017-07-23T07:45:37.072Z,27.00
2017-07-23T07:48:09.320Z,27.78
2017-07-23T07:50:41.441Z,28.13
2017-07-23T07:53:13.715Z,27.44
2017-07-23T07:55:46.120Z,27.38
2017-07-23T07:58:18.312Z,28.05
2017-07-23T08:00:50.625Z,28.43
2017-07-23T08:03:23.136Z,28.49
2017-07-23T08:05:55.279Z,28.71
2017-07-23T08:08:27.584Z,29.20
2017-07-23T08:10:59.914Z,29.16
2017-07-23T08:13:32.287Z,28.66
2017-07-23T08:16:04.521Z,28.15
2017-07-23T08:18:36.830Z,28.87
2017-07-23T08:21:09.079Z,28.96
2017-07-23T08:23:41.420Z,28.00
2017-07-23T08:26:13.743Z,28.34
2017-07-23T08:28:46.029Z,28.13
2017-07-23T08:31:18.258Z,28.13
2017-07-23T08:33:50.656Z,28.27
2017-07-23T08:36:22.912Z,28.20
2017-07-23T08:38:55.470Z,27.90
2017-07-23T08:41:27.484Z,28.12
2017-07-23T08:43:59.767Z,28.32
2017-07-23T08:46:32.076Z,27.84
2017-07-23T08:49:04.721Z,26.89
2017-07-23T08:51:36.914Z,25.84
2017-07-23T08:54:09.447Z,24.54
2017-07-23T08:56:41.867Z,24.69
2017-07-23T08:59:14.187Z,25.19
2017-07-23T09:01:46.427Z,25.07
2017-07-23T09:04:18.824Z,24.84
2017-07-23T09:06:51.172Z,24.71
2017-07-23T09:09:23.569Z,24.40
2017-07-23T09:11:55.904Z,24.17
2017-07-23T09:14:28.543Z,23.61
2017-07-23T09:17:00.864Z,23.10
2017-07-23T09:19:33.424Z,22.79
2017-07-23T09:22:05.831Z,22.64
2017-07-23T09:24:38.214Z,22.51
2017-07-23T09:27:10.441Z,22.72
2017-07-23T09:29:42.859Z,22.96
2017-07-23T09:32:15.091Z,23.05
2017-07-23T09:34:47.422Z,23.31
2017-07-23T09:37:19.961Z,22.81
2017-07-23T09:39:52.380Z,22.89
2017-07-23T09:42:24.692Z,22.71
2017-07-23T09:44:57.211Z,22.43
2017-07-23T09:47:29.651Z,22.65
2017-07-23T09:50:02.044Z,23.03
2017-07-23T09:52:34.425Z,23.08
2017-07-23T09:55:06.844Z,22.90
2017-07-23T09:57:39.232Z,23.17
2017-07-23T10:00:11.671Z,23.07
2017-07-23T10:02:44.116Z,23.02
2017-07-23T10:05:16.503Z,23.18
2017-07-23T10:07:48.951Z,22.81
2017-07-23T10:10:21.328Z,22.25
2017-07-23T10:12:53.680Z,22.50
2017-07-23T10:15:26.068Z,22.79
2017-07-23T10:17:58.391Z,23.05
2017-07-23T10:20:30.771Z,23.66
2017-07-23T10:23:03.227Z,24.24
2017-07-23T10:25:35.624Z,25.45
2017-07-23T10:28:08.017Z,26.01
2017-07-23T10:30:40.377Z,26.00
2017-07-23T10:33:12.719Z,25.94
2017-07-23T10:35:45.091Z,26.40
2017-07-23T10:38:17.374Z,26.51
2017-07-23T10:40:49.984Z,27.03
2017-07-23T10:43:22.169Z,27.40
2017-07-23T10:45:54.475Z,27.34
2017-07-23T10:48:26.873Z,27.35
2017-07-23T10:50:59.247Z,28.28
2017-07-23T10:53:31.637Z,28.67
2017-07-23T10:56:04.007Z,28.54
2017-07-23T10:58:36.428Z,27.52
2017-07-23T11:01:08.822Z,26.86
2017-07-23T11:03:41.101Z,26.49
2017-07-23T11:06:13.485Z,27.36
2017-07-23T11:08:45.847Z,27.59
2017-07-23T11:11:18.319Z,28.65
2017-07-23T11:13:50.696Z,28.33
2017-07-23T11:16:23.065Z,28.24
2017-07-23T11:18:55.435Z,27.49
2017-07-23T11:21:27.950Z,27.60
2017-07-23T11:24:00.180Z,27.50
2017-07-23T11:26:32.592Z,26.70
2017-07-23T11:29:04.933Z,25.95
2017-07-23T11:31:37.305Z,25.66
2017-07-23T11:34:09.565Z,26.58
2017-07-23T11:36:41.808Z,27.01
2017-07-23T11:39:14.318Z,25.75
2017-07-23T11:41:46.716Z,24.81
2017-07-23T11:44:19.029Z,25.65
2017-07-23T11:46:51.400Z,27.14
2017-07-23T11:49:23.675Z,28.01
2017-07-23T11:51:56.126Z,28.00
2017-07-23T11:54:28.375Z,28.27
2017-07-23T11:57:00.682Z,28.99
2017-07-23T11:59:33.016Z,29.47
2017-07-23T12:02:05.383Z,29.79
2017-07-23T12:04:37.772Z,30.01
2017-07-23T12:07:10.293Z,29.73
2017-07-23T12:09:42.556Z,29.56
2017-07-23T12:12:14.798Z,29.49
2017-07-23T12:14:47.121Z,29.17
2017-07-23T12:17:19.399Z,28.95
2017-07-23T12:19:51.692Z,29.05
2017-07-23T12:22:24.068Z,29.00
2017-07-23T12:24:56.276Z,28.69
2017-07-23T12:27:28.603Z,27.44
2017-07-23T12:30:00.900Z,26.66
2017-07-23T12:32:33.265Z,26.15
2017-07-23T12:35:05.568Z,25.75
2017-07-23T12:37:37.928Z,25.54
2017-07-23T12:40:10.067Z,25.18
2017-07-23T12:42:42.455Z,24.52
2017-07-23T12:45:14.867Z,24.16
2017-07-23T12:47:47.171Z,23.89
2017-07-23T12:50:19.542Z,23.72
2017-07-23T12:52:51.812Z,23.76
2017-07-23T12:55:24.148Z,23.48
2017-07-23T12:57:56.463Z,23.72
2017-07-23T13:00:28.904Z,23.79
2017-07-23T13:03:01.404Z,23.96
2017-07-23T13:05:33.824Z,24.35
2017-07-23T13:08:06.280Z,24.53
2017-07-23T13:10:38.643Z,24.12
2017-07-23T13:13:10.984Z,23.97
2017-07-23T13:15:43.376Z,24.33
2017-07-23T13:18:15.844Z,24.67
2017-07-23T13:20:48.055Z,24.37
2017-07-23T13:23:20.504Z,24.19
2017-07-23T13:25:52.771Z,23.98
2017-07-23T13:28:24.997Z,23.88
2017-07-23T13:30:57.239Z,23.83
2017-07-23T13:33:29.599Z,23.54
2017-07-23T13:36:01.803Z,22.78
2017-07-23T13:38:34.108Z,22.71
2017-07-23T13:41:06.363Z,22.66
2017-07-23T13:43:38.740Z,22.45
2017-07-23T13:46:11.196Z,22.54
2017-07-23T13:48:43.504Z,22.66
2017-07-23T13:51:15.943Z,23.04
2017-07-23T13:53:48.398Z,23.35
2017-07-23T13:56:20.819Z,23.52
2017-07-23T13:58:53.053Z,23.45
2017-07-23T14:01:25.482Z,23.22
2017-07-23T14:03:57.712Z,23.16
2017-07-23T14:06:29.928Z,22.95
2017-07-23T14:09:02.349Z,22.94
2017-07-23T14:11:34.813Z,23.01
2017-07-23T14:14:06.992Z,23.19
2017-07-23T14:16:39.332Z,23.54
2017-07-23T14:19:11.576Z,24.28
2017-07-23T14:21:43.843Z,24.76
2017-07-23T14:24:16.156Z,24.95
2017-07-23T14:26:48.299Z,24.64
2017-07-23T14:29:20.600Z,24.25
2017-07-23T14:31:52.872Z,23.43
2017-07-23T14:34:25.283Z,23.53
2017-07-23T14:36:57.468Z,23.58
2017-07-23T14:39:30.079Z,23.99
2017-07-23T14:42:01.932Z,24.20
2017-07-23T14:44:34.300Z,24.47
2017-07-23T14:47:06.549Z,24.26
2017-07-23T14:49:39.071Z,24.26
2017-07-23T14:52:11.351Z,24.14
2017-07-23T14:54:43.643Z,24.24
2017-07-23T14:57:16.020Z,24.16
2017-07-23T14:59:48.247Z,24.25
2017-07-23T15:02:20.541Z,24.26
2017-07-23T15:04:52.818Z,24.02
2017-07-23T15:07:25.152Z,24.10
2017-07-23T15:09:57.554Z,24.24
2017-07-23T15:12:29.859Z,23.93
2017-07-23T15:15:02.232Z,23.78
2017-07-23T15:17:34.416Z,23.50
2017-07-23T15:20:06.623Z,23.36
2017-07-23T15:22:38.879Z,23.34
2017-07-23T15:25:11.248Z,23.16
2017-07-23T15:27:43.460Z,23.21
2017-07-23T15:30:15.795Z,23.10
2017-07-23T15:32:48.060Z,23.09
2017-07-23T15:35:20.414Z,23.05
2017-07-23T15:37:52.584Z,23.00
2017-07-23T15:40:24.910Z,23.16
2017-07-23T15:42:57.197Z,23.16
2017-07-23T15:45:29.494Z,23.21
2017-07-23T15:48:01.925Z,23.26
2017-07-23T15:50:34.223Z,23.33
2017-07-23T15:53:06.548Z,23.52
2017-07-23T15:55:38.884Z,23.64
2017-07-23T15:58:11.247Z,23.80
2017-07-23T16:00:43.569Z,23.88
2017-07-23T16:03:15.900Z,24.00
2017-07-23T16:05:48.268Z,24.08
2017-07-23T16:08:20.479Z,24.07
2017-07-23T16:10:52.792Z,23.89
2017-07-23T16:13:25.046Z,23.88
2017-07-23T16:15:57.296Z,23.95
2017-07-23T16:18:29.486Z,23.97
2017-07-23T16:21:01.799Z,24.00
2017-07-23T16:23:34.184Z,24.04
2017-07-23T16:26:06.416Z,24.15
2017-07-23T16:28:38.734Z,24.20
2017-07-23T16:31:11.073Z,24.23
2017-07-23T16:33:43.448Z,24.20
2017-07-23T16:36:15.791Z,24.07
2017-07-23T16:38:48.203Z,23.75
2017-07-23T16:41:20.532Z,23.53
2017-07-23T16:43:52.756Z,23.47
2017-07-23T16:46:25.068Z,23.32
2017-07-23T16:48:57.451Z,23.19
2017-07-23T16:51:29.580Z,23.09
2017-07-23T16:54:01.916Z,22.94
2017-07-23T16:56:34.151Z,22.86
2017-07-23T16:59:06.618Z,22.81
2017-07-23T17:01:39.000Z,22.62
2017-07-23T17:04:11.183Z,22.74
2017-07-23T17:06:43.619Z,23.00
2017-07-23T17:09:15.729Z,23.11
2017-07-23T17:11:48.072Z,23.20
2017-07-23T17:14:20.384Z,23.25
2017-07-23T17:16:52.673Z,23.10
2017-07-23T17:19:24.903Z,22.96
2017-07-23T17:21:57.271Z,22.58
2017-07-23T17:24:29.660Z,22.39
2017-07-23T17:27:01.925Z,22.07
2017-07-23T17:29:34.151Z,21.92
2017-07-23T17:32:06.607Z,21.84
2017-07-23T17:34:38.987Z,21.81
2017-07-23T17:37:11.264Z,21.76
2017-07-23T17:39:43.504Z,21.64
2017-07-23T17:42:15.732Z,21.69
2017-07-23T17:44:48.425Z,21.65
2017-07-23T17:47:20.509Z,21.65
2017-07-23T17:49:52.939Z,21.62
2017-07-23T17:52:25.424Z,21.59
2017-07-23T17:54:57.732Z,21.61
2017-07-23T17:57:29.905Z,21.59
2017-07-23T18:00:02.244Z,21.63
2017-07-23T18:02:34.709Z,21.61
2017-07-23T18:05:07.025Z,21.72
2017-07-23T18:07:39.491Z,21.72
2017-07-23T18:10:11.644Z,21.76
2017-07-23T18:12:43.991Z,21.78
2017-07-23T18:15:16.324Z,21.82
2017-07-23T18:17:48.948Z,21.81
2017-07-23T18:20:21.160Z,21.83
2017-07-23T18:22:53.268Z,21.87
2017-07-23T18:25:25.663Z,21.88
2017-07-23T18:27:58.043Z,21.85
2017-07-23T18:30:30.351Z,21.69
2017-07-23T18:33:02.735Z,21.69
2017-07-23T18:35:34.988Z,21.58
2017-07-23T18:38:07.340Z,21.31
2017-07-23T18:40:39.612Z,21.26
2017-07-23T18:43:11.995Z,21.27
2017-07-23T18:45:44.389Z,21.17
2017-07-23T18:48:16.676Z,21.14
2017-07-23T18:50:49.112Z,20.99
2017-07-23T18:53:21.460Z,20.91
2017-07-23T18:55:53.816Z,20.81
2017-07-23T18:58:26.239Z,20.70
2017-07-23T19:00:58.575Z,20.64
2017-07-23T19:03:30.863Z,20.55
2017-07-23T19:06:03.101Z,20.44
2017-07-23T19:08:35.300Z,20.34
2017-07-23T19:11:07.729Z,20.29
2017-07-23T19:13:40.083Z,20.03
2017-07-23T19:16:12.375Z,19.93
2017-07-23T19:18:44.793Z,19.78
2017-07-23T19:21:17.188Z,19.80
2017-07-23T19:23:49.460Z,19.64
2017-07-23T19:26:21.743Z,19.66
2017-07-23T19:28:54.004Z,19.60
2017-07-23T19:31:26.364Z,19.50
2017-07-23T19:33:58.601Z,19.43
2017-07-23T19:36:30.980Z,19.35
2017-07-23T19:39:03.296Z,19.22
2017-07-23T19:41:35.697Z,19.21
2017-07-23T19:44:07.964Z,19.18
2017-07-23T19:46:40.251Z,18.89
2017-07-23T19:49:12.604Z,19.00
2017-07-23T19:51:44.819Z,19.00
2017-07-23T19:54:17.048Z,18.85
2017-07-23T19:56:49.316Z,18.92
2017-07-23T19:59:21.643Z,19.01
2017-07-23T20:01:53.884Z,18.99
2017-07-23T20:04:26.156Z,19.05
2017-07-23T20:06:58.412Z,19.05
2017-07-23T20:09:30.656Z,19.08
2017-07-23T20:12:03.013Z,19.10
2017-07-23T20:14:35.384Z,19.16
2017-07-23T20:17:07.716Z,19.22
2017-07-23T20:19:40.128Z,19.10
2017-07-23T20:22:12.349Z,19.09
2017-07-23T20:24:44.639Z,19.17
2017-07-23T20:27:16.835Z,19.20
2017-07-23T20:29:49.197Z,19.22
2017-07-23T20:32:21.488Z,19.18
2017-07-23T20:34:53.940Z,19.20
2017-07-23T20:37:26.223Z,19.20
2017-07-23T20:39:58.637Z,19.18
2017-07-23T20:42:30.926Z,19.08
2017-07-23T20:45:03.220Z,19.08
2017-07-23T20:47:35.574Z,19.02
2017-07-23T20:50:07.916Z,18.99
2017-07-23T20:52:40.196Z,18.91
2017-07-23T20:55:12.584Z,18.89
2017-07-23T20:57:44.804Z,18.86
2017-07-23T21:00:17.160Z,18.81
2017-07-23T21:02:49.409Z,18.75
2017-07-23T21:05:21.836Z,18.68
2017-07-23T21:07:53.987Z,18.63
2017-07-23T21:10:26.416Z,18.56
2017-07-23T21:12:58.687Z,18.53
2017-07-23T21:15:30.964Z,18.46
2017-07-23T21:18:03.336Z,18.47
2017-07-23T21:20:35.832Z,18.50
2017-07-23T21:23:08.183Z,18.43
2017-07-23T21:25:40.422Z,18.41
2017-07-23T21:28:12.711Z,18.40
2017-07-23T21:30:45.044Z,18.37
2017-07-23T21:33:17.329Z,18.33
2017-07-23T21:35:49.594Z,18.25
2017-07-23T21:38:21.851Z,18.18
2017-07-23T21:40:54.164Z,18.13
2017-07-23T21:43:26.390Z,18.10
2017-07-23T21:45:58.755Z,18.06
2017-07-23T21:48:31.111Z,17.98
2017-07-23T21:51:03.343Z,18.00
2017-07-23T21:53:35.647Z,17.94
2017-07-23T21:56:07.896Z,17.80
2017-07-23T21:58:40.192Z,17.85
2017-07-23T22:01:12.556Z,17.79
2017-07-23T22:03:44.767Z,17.77
2017-07-23T22:06:17.153Z,17.78
2017-07-23T22:08:49.265Z,17.70
2017-07-23T22:11:21.640Z,17.70
2017-07-23T22:13:53.767Z,17.75
2017-07-23T22:16:26.105Z,17.71
2017-07-23T22:18:58.575Z,17.69
2017-07-23T22:21:30.949Z,17.67
2017-07-23T22:24:03.400Z,17.48
2017-07-23T22:26:35.754Z,17.54
2017-07-23T22:29:08.183Z,17.58
2017-07-23T22:31:40.740Z,17.55
2017-07-23T22:34:13.048Z,17.57
2017-07-23T22:36:45.403Z,17.61
2017-07-23T22:39:17.651Z,17.55
2017-07-23T22:41:50.020Z,17.54
2017-07-23T22:44:22.284Z,17.55
2017-07-23T22:46:54.674Z,17.55
2017-07-23T22:49:26.867Z,17.51
2017-07-23T22:51:59.331Z,17.50
2017-07-23T22:54:31.735Z,17.46
2017-07-23T22:57:04.007Z,17.45
2017-07-23T22:59:36.365Z,17.40
2017-07-23T23:02:08.707Z,17.37
2017-07-23T23:04:41.047Z,17.37
2017-07-23T23:07:13.278Z,17.34
2017-07-23T23:09:45.631Z,17.31
2017-07-23T23:12:17.959Z,17.24
2017-07-23T23:14:50.343Z,17.23
2017-07-23T23:17:22.652Z,17.20
2017-07-23T23:19:55.329Z,17.17
2017-07-23T23:22:27.572Z,17.10
2017-07-23T23:24:59.811Z,17.08
2017-07-23T23:27:32.234Z,17.03
2017-07-23T23:30:04.620Z,17.01
2017-07-23T23:32:37.103Z,17.03
2017-07-23T23:35:09.464Z,16.99
2017-07-23T23:37:41.761Z,16.98
2017-07-23T23:40:14.156Z,16.97
2017-07-23T23:42:46.581Z,16.91
2017-07-23T23:45:18.953Z,16.88
2017-07-23T23:47:51.348Z,16.87
2017-07-23T23:50:23.793Z,16.85
2017-07-23T23:52:56.179Z,16.82
2017-07-23T23:55:28.536Z,16.81
2017-07-23T23:58:00.942Z,16.85
